Time;durP1;ratioP1;P1;durP2;ratioP2;P2;SDS_P1;SDS_P2;PMS_P1;PMS_P2;Temp;Humidity;BMP_temperature;BMP_pressure;BME280_temperature;BME280_humidity;BME280_pressure;Samples;Min_cycle;Max_cycle;Signal;HPM_P1;HPM_P2
2023/08/25 00:00:24;;;;;;;9.77;8.77;;;24.10;85.50;;;26.54;55.11;100737.22;5039558;28;20189;-67
2023/08/25 00:02:51;;;;;;;9.47;8.57;;;24.00;85.70;;;26.50;55.63;100742.38;5034172;28;20252;-67
2023/08/25 00:05:18;;;;;;;9.37;8.33;;;24.00;86.00;;;26.50;55.39;100737.00;5033089;28;20571;-67
2023/08/25 00:07:45;;;;;;;10.13;8.90;;;24.00;86.10;;;26.49;55.71;100743.47;5033651;28;20191;-68
2023/08/25 00:10:13;;;;;;;10.63;8.63;;;24.00;86.30;;;26.50;55.60;100742.38;5033248;28;20282;-67
2023/08/25 00:12:41;;;;;;;7.63;6.93;;;24.00;86.40;;;26.53;55.15;100744.50;5033597;28;20269;-67
2023/08/25 00:15:10;;;;;;;14.30;8.03;;;24.00;86.20;;;26.60;55.35;100736.91;5033015;28;20713;-68
2023/08/25 00:17:38;;;;;;;8.17;7.37;;;24.00;86.20;;;26.68;55.10;100738.22;5032670;28;20210;-67
2023/08/25 00:20:10;;;;;;;8.80;7.90;;;24.00;86.10;;;26.73;54.66;100735.47;5033057;28;20217;-68
2023/08/25 00:22:37;;;;;;;9.30;8.50;;;24.10;86.20;;;26.75;54.53;100734.13;5033580;28;20202;-67
2023/08/25 00:25:06;;;;;;;10.00;6.87;;;24.10;86.10;;;26.79;54.62;100734.41;5048848;28;20213;-67
2023/08/25 00:27:33;;;;;;;8.50;7.53;;;24.10;85.80;;;26.80;54.51;100731.41;5013729;28;20230;-67
2023/08/25 00:30:00;;;;;;;10.87;8.40;;;24.10;85.80;;;26.80;54.43;100719.78;5023722;28;20544;-67
2023/08/25 00:32:29;;;;;;;9.23;8.33;;;24.10;86.10;;;26.78;54.65;100733.59;5033401;28;20194;-67
2023/08/25 00:34:58;;;;;;;11.70;9.23;;;24.20;86.10;;;26.76;54.88;100743.06;5051499;28;20572;-68
2023/08/25 00:37:25;;;;;;;8.87;7.97;;;24.10;86.10;;;26.72;55.12;100753.56;5056019;28;20334;-67
2023/08/25 00:39:52;;;;;;;9.63;8.73;;;24.10;86.00;;;26.71;55.06;100743.88;5045222;28;20273;-67
2023/08/25 00:42:19;;;;;;;8.27;7.37;;;24.10;86.10;;;26.73;54.92;100751.69;5037458;28;20200;-67
2023/08/25 00:44:46;;;;;;;8.90;7.93;;;24.10;86.00;;;26.76;54.71;100746.56;5036400;28;20254;-67
2023/08/25 00:47:14;;;;;;;10.43;8.80;;;24.10;86.10;;;26.77;54.94;100741.94;5036732;28;20689;-66
2023/08/25 00:49:42;;;;;;;7.70;6.90;;;24.10;86.10;;;26.78;54.80;100738.97;5036872;28;20187;-66
2023/08/25 00:52:11;;;;;;;6.93;5.83;;;24.10;86.00;;;26.84;54.38;100737.84;5037212;28;20226;-66
2023/08/25 00:54:40;;;;;;;6.40;5.90;;;24.10;85.90;;;26.88;54.57;100743.50;5036570;28;20191;-67
2023/08/25 00:57:07;;;;;;;10.10;7.37;;;24.10;85.80;;;26.93;53.91;100756.16;5037072;28;20297;-66
2023/08/25 00:59:35;;;;;;;7.03;6.43;;;24.20;85.90;;;26.95;54.34;100756.69;5036867;28;20187;-66
2023/08/25 01:02:03;;;;;;;8.07;6.97;;;24.10;85.70;;;26.96;54.35;100750.22;5035508;28;20197;-67
2023/08/25 01:04:31;;;;;;;8.10;7.40;;;24.20;85.70;;;26.97;53.97;100741.81;5036314;28;20186;-67
2023/08/25 01:06:58;;;;;;;9.43;8.53;;;24.20;85.90;;;26.94;54.58;100742.38;5036828;28;20274;-67
2023/08/25 01:09:27;;;;;;;9.83;7.17;;;24.20;86.10;;;26.89;54.48;100738.91;5036774;28;20183;-67
2023/08/25 01:12:04;;;;;;;7.90;7.10;;;24.20;85.90;;;26.88;54.42;100742.69;5036619;28;20233;-68
2023/08/25 01:14:46;;;;;;;8.80;7.50;;;24.20;85.80;;;26.84;54.50;100743.25;5036362;28;20171;-67
2023/08/25 01:17:22;;;;;;;8.33;7.43;;;24.20;86.00;;;26.80;54.42;100736.81;5036396;28;20209;-67
2023/08/25 01:19:58;;;;;;;9.00;8.00;;;24.20;86.00;;;26.75;54.85;100739.53;5036463;28;20230;-67
2023/08/25 01:22:33;;;;;;;6.70;5.87;;;24.10;85.90;;;26.76;54.26;100733.06;5036678;28;20689;-67
2023/08/25 01:25:21;;;;;;;7.07;6.47;;;24.20;85.90;;;26.77;54.45;100736.53;5051185;28;20220;-68
2023/08/25 01:27:52;;;;;;;8.57;7.37;;;24.10;85.90;;;26.83;54.25;100740.84;5016174;28;20283;-67
2023/08/25 01:30:22;;;;;;;8.97;7.30;;;24.10;85.80;;;26.82;54.75;100740.03;5016618;28;20222;-67
2023/08/25 01:32:51;;;;;;;6.90;5.97;;;24.10;85.70;;;26.83;54.54;100738.94;5019388;28;20253;-67
2023/08/25 01:35:25;;;;;;;10.37;8.57;;;24.10;85.80;;;26.79;54.93;100737.88;5035747;28;20234;-67
2023/08/25 01:38:04;;;;;;;9.00;7.40;;;24.20;86.20;;;26.76;54.29;100729.53;5035495;28;20210;-67
2023/08/25 01:40:40;;;;;;;7.03;6.30;;;24.10;85.80;;;26.73;54.55;100730.88;5036339;28;20190;-67
2023/08/25 01:43:12;;;;;;;9.10;7.93;;;24.20;85.80;;;26.72;54.93;100723.84;5036146;28;20175;-67
2023/08/25 01:45:40;;;;;;;9.70;8.70;;;24.10;85.70;;;26.68;55.11;100730.91;5034063;28;20240;-67
2023/08/25 01:48:11;;;;;;;10.87;8.33;;;24.10;86.10;;;26.63;54.55;100733.66;5035176;28;20278;-67
2023/08/25 01:50:39;;;;;;;8.13;7.43;;;24.10;86.10;;;26.59;55.32;100729.91;5036490;28;20217;-67
2023/08/25 01:53:08;;;;;;;8.20;6.23;;;24.00;86.20;;;26.56;54.67;100725.06;5035893;28;20207;-67
2023/08/25 01:55:36;;;;;;;7.90;7.20;;;24.00;86.10;;;26.60;54.86;100736.91;5036001;28;20210;-67
2023/08/25 01:58:04;;;;;;;15.63;13.80;;;24.00;86.20;;;26.63;54.78;100728.25;5035850;28;20317;-67
2023/08/25 02:00:31;;;;;;;8.73;7.80;;;24.00;86.30;;;26.66;54.83;100727.69;5035429;28;20626;-67
2023/08/25 02:02:59;;;;;;;7.90;7.17;;;24.00;86.10;;;26.69;54.35;100723.63;5035842;28;20218;-67
2023/08/25 02:05:26;;;;;;;8.43;7.53;;;24.00;86.10;;;26.69;54.33;100732.53;5033934;28;20258;-67
2023/08/25 02:07:53;;;;;;;8.30;7.40;;;24.00;86.10;;;26.63;54.50;100730.13;5035650;28;20281;-67
2023/08/25 02:10:21;;;;;;;7.17;6.47;;;24.00;86.10;;;26.59;54.92;100724.50;5035258;28;20230;-67
2023/08/25 02:12:49;;;;;;;8.93;8.03;;;24.00;86.00;;;26.55;54.64;100718.06;5035565;28;20197;-67
2023/08/25 02:15:16;;;;;;;10.67;8.47;;;23.90;85.90;;;26.53;55.21;100725.59;5035356;28;20646;-67
2023/08/25 02:17:43;;;;;;;10.53;9.53;;;23.90;86.20;;;26.48;55.14;100722.16;5035711;28;20218;-67
2023/08/25 02:20:12;;;;;;;12.87;9.57;;;23.90;86.50;;;26.42;55.09;100720.56;5035471;28;20237;-67
2023/08/25 02:22:39;;;;;;;11.87;8.43;;;23.80;86.60;;;26.36;55.37;100724.38;5034498;28;20256;-67
2023/08/25 02:25:07;;;;;;;10.73;9.23;;;23.80;86.50;;;26.30;55.33;100731.69;5050869;28;20209;-69
2023/08/25 02:27:34;;;;;;;10.53;9.53;;;23.70;87.00;;;26.21;55.31;100727.97;5035270;28;20186;-67
2023/08/25 02:30:04;;;;;;;10.03;9.03;;;23.70;86.90;;;26.16;55.78;100725.28;5034952;28;20270;-67
2023/08/25 02:32:31;;;;;;;9.10;8.20;;;23.60;87.30;;;26.11;56.03;100718.03;5035137;28;20596;-67
2023/08/25 02:34:58;;;;;;;10.83;9.73;;;23.60;87.50;;;26.09;55.94;100714.78;5053704;28;20934;-68
2023/08/25 02:37:25;;;;;;;10.33;8.73;;;23.60;87.80;;;26.04;56.03;100716.69;5047844;28;20293;-67
2023/08/25 02:39:52;;;;;;;10.03;9.13;;;23.50;87.70;;;26.03;56.15;100715.09;5035259;28;20187;-68
2023/08/25 02:42:19;;;;;;;11.17;9.73;;;23.50;87.90;;;26.00;56.22;100715.63;5035018;28;20199;-68
2023/08/25 02:44:46;;;;;;;11.00;10.00;;;23.40;87.90;;;25.97;56.26;100710.78;5034555;28;20205;-67
2023/08/25 02:47:14;;;;;;;11.90;8.97;;;23.40;88.10;;;25.97;56.75;100713.47;5034868;28;20188;-68
2023/08/25 02:49:41;;;;;;;8.93;8.13;;;23.40;88.10;;;25.98;56.48;100712.41;5033812;28;20206;-68
2023/08/25 02:52:08;;;;;;;11.73;10.53;;;23.40;88.00;;;25.97;56.36;100717.00;5034384;28;20198;-68
2023/08/25 02:54:35;;;;;;;11.97;9.37;;;23.40;88.30;;;25.97;56.62;100710.78;5034656;28;20198;-68
2023/08/25 02:57:02;;;;;;;10.00;9.10;;;23.40;88.10;;;25.98;56.63;100707.00;5034386;28;20194;-68
2023/08/25 02:59:29;;;;;;;11.47;10.27;;;23.40;88.30;;;25.99;56.65;100703.22;5033879;28;20643;-68
2023/08/25 03:01:56;;;;;;;9.67;8.57;;;23.40;88.40;;;26.02;56.46;100699.97;5034179;28;20201;-67
2023/08/25 03:04:24;;;;;;;8.53;7.77;;;23.40;88.40;;;26.05;56.72;100702.13;5034707;28;20209;-68
2023/08/25 03:06:54;;;;;;;12.00;9.17;;;23.40;88.40;;;26.13;56.60;100701.56;5033957;28;20220;-68
2023/08/25 03:09:21;;;;;;;10.97;9.83;;;23.40;88.50;;;26.15;56.08;100710.16;5034739;28;20193;-68
2023/08/25 03:11:48;;;;;;;11.37;10.17;;;23.40;88.20;;;26.17;55.43;100705.31;5034127;28;20560;-68
2023/08/25 03:14:15;;;;;;;12.17;9.63;;;23.40;88.00;;;26.16;55.55;100709.09;5034096;28;20602;-68
2023/08/25 03:16:41;;;;;;;8.77;7.90;;;23.40;88.00;;;26.17;56.13;100716.13;5033814;28;20225;-68
2023/08/25 03:19:08;;;;;;;11.33;10.13;;;23.40;88.10;;;26.21;55.44;100711.78;5033304;28;20578;-68
2023/08/25 03:21:37;;;;;;;9.20;8.30;;;23.50;88.20;;;26.22;55.29;100707.97;5034145;28;20191;-68
2023/08/25 03:24:05;;;;;;;8.30;7.50;;;23.50;88.00;;;26.23;56.02;100698.81;5041595;28;20194;-68
2023/08/25 03:26:32;;;;;;;8.67;7.77;;;23.50;88.10;;;26.27;55.33;100699.84;5041964;28;20210;-68
2023/08/25 03:28:59;;;;;;;8.63;7.73;;;23.50;87.90;;;26.27;55.29;100691.75;5034591;28;20255;-67
2023/08/25 03:31:26;;;;;;;9.73;8.83;;;23.50;87.80;;;26.29;55.83;100695.00;5032618;28;20269;-67
2023/08/25 03:33:53;;;;;;;12.33;11.03;;;23.50;87.90;;;26.30;55.15;100693.91;5036805;28;20208;-67
2023/08/25 03:36:20;;;;;;;11.10;10.10;;;23.50;87.90;;;26.26;55.12;100684.75;5033165;28;20214;-68
2023/08/25 03:38:48;;;;;;;11.67;10.60;;;23.50;87.70;;;26.22;55.33;100686.38;5033211;28;20210;-67
2023/08/25 03:41:15;;;;;;;12.10;10.87;;;23.50;87.70;;;26.20;55.86;100693.94;5032562;28;20660;-68
2023/08/25 03:43:42;;;;;;;11.10;9.93;;;23.50;88.00;;;26.19;55.49;100684.25;5033761;28;20201;-68
2023/08/25 03:46:09;;;;;;;11.23;10.13;;;23.50;88.00;;;26.17;55.36;100673.72;5032589;28;20230;-68
2023/08/25 03:48:36;;;;;;;11.03;9.90;;;23.40;87.90;;;26.15;55.41;100675.91;5033497;28;20194;-68
2023/08/25 03:51:03;;;;;;;13.30;11.67;;;23.40;88.10;;;26.16;55.56;100674.00;5033680;28;20194;-68
2023/08/25 03:53:30;;;;;;;12.43;11.10;;;23.40;88.10;;;26.13;55.29;100671.88;5033358;28;20628;-66
2023/08/25 03:55:58;;;;;;;10.80;9.67;;;23.40;88.20;;;26.11;55.50;100679.44;5033102;28;20678;-66
2023/08/25 03:58:25;;;;;;;11.63;10.53;;;23.40;88.30;;;26.09;55.66;100666.19;5032981;28;20213;-67
2023/08/25 04:00:54;;;;;;;12.43;11.20;;;23.40;88.30;;;26.06;55.71;100671.34;5033667;28;20608;-67
2023/08/25 04:03:23;;;;;;;11.30;10.10;;;23.30;88.20;;;26.02;55.48;100673.78;5032938;28;20545;-67
2023/08/25 04:05:50;;;;;;;12.67;11.47;;;23.30;89.10;;;26.00;55.74;100670.56;5033114;28;20260;-67
2023/08/25 04:08:17;;;;;;;14.37;12.60;;;23.30;88.50;;;26.00;56.05;100673.28;5033204;28;20273;-67
2023/08/25 04:10:45;;;;;;;14.77;12.83;;;23.30;88.80;;;26.00;56.46;100672.47;5033769;28;20277;-67
2023/08/25 04:13:14;;;;;;;14.83;13.37;;;23.30;88.80;;;25.99;55.96;100676.22;5037423;28;20213;-67
2023/08/25 04:15:41;;;;;;;12.73;10.73;;;23.30;88.80;;;25.97;55.98;100673.00;5037163;28;20225;-67
2023/08/25 04:18:08;;;;;;;18.27;14.37;;;23.30;88.90;;;25.97;56.33;100667.59;5036932;28;20535;-67
2023/08/25 04:20:35;;;;;;;15.10;13.37;;;23.20;89.00;;;25.95;56.46;100676.00;5037647;28;20196;-66
2023/08/25 04:23:02;;;;;;;13.77;12.37;;;23.20;89.00;;;25.94;56.13;100673.56;5037093;28;20248;-66
2023/08/25 04:25:29;;;;;;;15.10;13.60;;;23.20;89.20;;;25.95;56.79;100681.38;5056256;28;20296;-67
2023/08/25 04:27:57;;;;;;;12.13;10.93;;;23.20;89.40;;;25.95;56.73;100669.78;5056792;28;20221;-68
2023/08/25 04:30:26;;;;;;;15.00;13.13;;;23.20;89.40;;;25.92;56.40;100671.13;5049231;28;20260;-67
2023/08/25 04:32:53;;;;;;;14.27;11.67;;;23.20;89.40;;;25.91;56.98;100671.44;5038852;28;20194;-67
2023/08/25 04:35:20;;;;;;;14.33;13.00;;;23.20;89.60;;;25.93;56.51;100677.34;5056450;28;20538;-67
2023/08/25 04:37:48;;;;;;;15.33;13.73;;;23.20;89.70;;;25.95;56.22;100669.78;5056882;28;20643;-67
2023/08/25 04:40:15;;;;;;;11.30;10.20;;;23.20;89.40;;;25.94;56.78;100657.38;5041934;28;20627;-68
2023/08/25 04:42:43;;;;;;;14.03;11.90;;;23.20;89.40;;;25.93;56.37;100659.28;5036973;28;20274;-67
2023/08/25 04:45:11;;;;;;;13.83;12.50;;;23.20;89.40;;;25.92;56.51;100659.53;5035900;28;20675;-68
2023/08/25 04:47:40;;;;;;;15.27;13.67;;;23.20;89.50;;;25.91;56.79;100658.72;5036998;28;20281;-67
2023/08/25 04:50:08;;;;;;;17.07;15.40;;;23.20;89.60;;;25.89;56.58;100652.00;5036611;28;20308;-67
2023/08/25 04:52:37;;;;;;;17.47;15.70;;;23.20;89.80;;;25.88;56.52;100663.88;5037845;28;20269;-70
2023/08/25 04:55:05;;;;;;;16.37;14.70;;;23.10;89.70;;;25.85;56.23;100653.63;5040618;28;20214;-67
2023/08/25 04:57:34;;;;;;;14.13;12.73;;;23.10;89.80;;;25.85;56.64;100659.03;5037245;28;20191;-68
2023/08/25 05:00:05;;;;;;;15.17;13.67;;;23.10;90.00;;;25.85;56.75;100656.34;5037970;28;20194;-69
2023/08/25 05:02:32;;;;;;;13.87;12.57;;;23.10;90.00;;;25.83;56.67;100655.81;5036311;28;20237;-67
2023/08/25 05:05:03;;;;;;;16.13;13.90;;;23.00;89.90;;;25.84;56.48;100652.03;5037164;28;20214;-68
2023/08/25 05:07:30;;;;;;;14.10;12.63;;;23.00;90.10;;;25.86;56.95;100655.25;5037347;28;20175;-68
2023/08/25 05:09:57;;;;;;;15.90;14.30;;;23.00;90.20;;;25.91;56.68;100663.34;5037059;28;20191;-66
2023/08/25 05:12:24;;;;;;;17.37;15.60;;;23.10;90.20;;;25.94;57.12;100662.75;5036439;28;20297;-66
2023/08/25 05:14:51;;;;;;;15.63;14.03;;;23.10;90.30;;;25.94;57.17;100658.19;5035617;28;20250;-67
2023/08/25 05:17:18;;;;;;;17.87;15.97;;;23.10;90.20;;;25.94;56.75;100660.06;5016646;28;20191;-68
2023/08/25 05:19:45;;;;;;;20.07;14.17;;;23.10;90.20;;;25.89;57.30;100657.38;5016638;28;20243;-70
2023/08/25 05:22:14;;;;;;;18.73;16.30;;;23.10;90.10;;;25.85;57.11;100654.44;5016247;28;20199;-68
2023/08/25 05:24:41;;;;;;;15.53;14.00;;;23.10;90.20;;;25.83;57.49;100659.31;5040628;28;20280;-68
2023/08/25 05:27:09;;;;;;;15.57;13.97;;;23.10;90.20;;;25.83;57.01;100656.63;5045107;28;20277;-68
2023/08/25 05:29:36;;;;;;;17.23;15.37;;;23.10;90.20;;;25.88;57.05;100647.69;5034655;28;20194;-68
2023/08/25 05:32:04;;;;;;;20.57;18.33;;;23.10;90.30;;;25.84;57.42;100646.66;5035860;28;20198;-68
2023/08/25 05:34:31;;;;;;;21.73;19.70;;;23.10;90.30;;;25.77;58.31;100651.53;5050326;28;20547;-68
2023/08/25 05:36:59;;;;;;;19.33;17.43;;;23.10;90.50;;;25.71;57.58;100658.03;5055219;28;20198;-67
2023/08/25 05:39:27;;;;;;;16.53;14.83;;;23.10;90.40;;;25.72;57.74;100654.25;5037021;28;20209;-68
2023/08/25 05:41:54;;;;;;;18.30;16.40;;;23.10;90.40;;;25.76;58.04;100644.53;5035154;28;20595;-68
2023/08/25 05:44:22;;;;;;;16.67;15.10;;;23.00;90.40;;;25.78;57.87;100642.34;5035135;28;20198;-68
2023/08/25 05:46:49;;;;;;;17.70;16.00;;;23.00;90.40;;;25.81;57.50;100647.19;5034541;28;20220;-68
2023/08/25 05:49:16;;;;;;;17.47;15.77;;;23.10;90.40;;;25.81;57.28;100642.63;5035447;28;20203;-67
2023/08/25 05:51:44;;;;;;;16.23;14.63;;;23.00;90.70;;;25.83;57.07;100645.84;5035512;28;20340;-67
2023/08/25 05:54:12;;;;;;;17.70;15.87;;;23.00;90.40;;;25.84;57.20;100658.22;5034834;28;20205;-67
2023/08/25 05:56:40;;;;;;;18.10;16.23;;;23.00;90.50;;;25.86;57.85;100649.88;5035292;28;20225;-66
2023/08/25 05:59:07;;;;;;;19.43;17.27;;;23.00;90.60;;;25.86;57.26;100655.25;5034811;28;20203;-69
2023/08/25 06:01:34;;;;;;;18.87;16.10;;;23.10;90.60;;;25.89;57.49;100660.91;5033763;28;20582;-68
2023/08/25 06:04:03;;;;;;;18.43;16.43;;;23.00;91.00;;;25.94;57.13;100665.47;5035109;28;20199;-67
2023/08/25 06:06:31;;;;;;;19.40;17.33;;;23.10;90.70;;;25.99;57.95;100660.03;5034519;28;20218;-67
2023/08/25 06:08:58;;;;;;;18.33;16.20;;;23.10;90.70;;;26.06;57.51;100655.13;5033000;28;20205;-68
2023/08/25 06:11:25;;;;;;;18.47;16.53;;;23.10;90.70;;;26.14;57.04;100654.59;5034724;28;20195;-67
2023/08/25 06:13:53;;;;;;;20.63;18.43;;;23.20;90.70;;;26.19;57.08;100662.66;5034878;28;20197;-67
2023/08/25 06:16:21;;;;;;;21.17;17.07;;;23.20;90.80;;;26.24;56.88;100661.81;5034140;28;20551;-66
2023/08/25 06:18:48;;;;;;;17.50;15.67;;;23.30;90.80;;;26.32;57.40;100664.72;5034619;28;20563;-67
2023/08/25 06:21:15;;;;;;;19.67;17.70;;;23.30;90.80;;;26.40;56.55;100660.63;5034320;28;20557;-67
2023/08/25 06:23:42;;;;;;;19.87;18.07;;;23.40;90.80;;;26.45;57.24;100664.13;5038663;28;20729;-69
2023/08/25 06:26:09;;;;;;;21.03;18.93;;;23.40;90.70;;;26.51;56.86;100673.78;5045889;28;20316;-69
2023/08/25 06:28:36;;;;;;;21.30;19.30;;;23.40;90.70;;;26.56;56.69;100671.03;5034506;28;20213;-68
2023/08/25 06:31:08;;;;;;;20.93;18.83;;;23.50;90.60;;;26.60;56.82;100665.91;5034342;28;20194;-67
2023/08/25 06:33:35;;;;;;;21.77;18.27;;;23.50;90.60;;;26.65;56.84;100663.94;5040272;28;20179;-68
2023/08/25 06:36:02;;;;;;;24.80;22.20;;;23.60;90.60;;;26.71;56.17;100672.81;5033521;28;20225;-68
2023/08/25 06:38:29;;;;;;;21.30;19.10;;;23.60;90.60;;;26.76;56.74;100673.63;5033610;28;20254;-68
2023/08/25 06:41:08;;;;;;;17.80;15.83;;;23.60;90.50;;;26.79;56.49;100670.34;5033867;28;20670;-68
2023/08/25 06:43:35;;;;;;;23.67;21.37;;;23.70;90.40;;;26.84;56.18;100677.59;5033910;28;20216;-68
2023/08/25 06:46:03;;;;;;;22.27;20.07;;;23.80;90.40;;;26.88;55.95;100672.44;5016728;28;20219;-68
2023/08/25 06:48:30;;;;;;;20.80;18.37;;;23.80;90.30;;;26.91;56.21;100672.66;5033031;28;20268;-68
2023/08/25 06:50:57;;;;;;;23.10;20.80;;;23.80;90.30;;;26.97;55.75;100676.13;5033766;28;20265;-68
2023/08/25 06:53:24;;;;;;;22.33;20.13;;;23.90;90.20;;;26.99;55.62;100679.34;5034213;28;20199;-68
2023/08/25 06:55:51;;;;;;;23.03;19.93;;;23.90;90.10;;;26.97;55.76;100676.13;5033474;28;20298;-68
2023/08/25 06:58:18;;;;;;;22.00;19.80;;;23.90;90.00;;;26.95;55.39;100678.31;5033761;28;20643;-68
2023/08/25 07:00:45;;;;;;;25.23;22.63;;;23.90;89.90;;;26.95;55.26;100687.25;5034042;28;20189;-67
2023/08/25 07:03:14;;;;;;;23.00;20.70;;;23.90;89.90;;;26.91;55.57;100694.28;5033808;28;20186;-68
2023/08/25 07:05:41;;;;;;;23.27;20.87;;;23.90;90.00;;;26.91;55.26;100693.50;5033380;28;20775;-68
2023/08/25 07:08:08;;;;;;;21.67;18.93;;;23.90;90.00;;;26.92;55.67;100690.50;5034134;28;20190;-68
2023/08/25 07:10:36;;;;;;;25.10;21.87;;;23.90;90.00;;;26.97;55.35;100693.16;5034016;28;20195;-68
2023/08/25 07:13:04;;;;;;;22.60;20.27;;;23.90;90.00;;;27.03;55.40;100691.22;5032748;28;20210;-68
2023/08/25 07:15:31;;;;;;;23.50;21.10;;;23.90;90.00;;;27.06;55.26;100683.34;5033596;28;20256;-68
2023/08/25 07:17:59;;;;;;;24.03;21.40;;;23.90;90.00;;;27.13;55.39;100683.00;5033685;28;20186;-67
2023/08/25 07:20:28;;;;;;;21.73;19.63;;;24.00;90.00;;;27.18;54.86;100688.34;5033405;28;20210;-68
2023/08/25 07:22:55;;;;;;;17.83;15.93;;;24.00;90.00;;;27.23;55.09;100691.03;5033277;28;20915;-67
2023/08/25 07:25:22;;;;;;;21.50;19.20;;;24.10;90.00;;;27.28;54.91;100689.06;5049294;28;20716;-67
2023/08/25 07:27:49;;;;;;;21.57;19.27;;;24.10;89.90;;;27.35;55.14;100689.53;5032343;28;20721;-67
2023/08/25 07:30:16;;;;;;;23.53;21.00;;;24.10;89.70;;;27.38;54.50;100699.00;5038318;28;20202;-67
2023/08/25 07:32:43;;;;;;;21.03;18.93;;;24.20;90.10;;;27.39;54.67;100700.59;5053513;28;20240;-68
2023/08/25 07:35:10;;;;;;;24.53;21.97;;;24.20;89.30;;;27.46;54.57;100706.47;5032923;28;20210;-68
2023/08/25 07:37:41;;;;;;;24.43;20.10;;;24.20;89.20;;;27.47;54.21;100705.41;5032150;28;20189;-67
2023/08/25 07:40:10;;;;;;;19.90;17.80;;;24.30;89.10;;;27.47;54.24;100702.69;5033246;28;20202;-67
2023/08/25 07:42:37;;;;;;;22.70;19.60;;;24.30;88.90;;;27.47;54.31;100708.09;5033144;28;20273;-68
2023/08/25 07:45:06;;;;;;;19.63;17.57;;;24.30;88.80;;;27.49;54.31;100704.03;5032334;28;20222;-66
2023/08/25 07:47:35;;;;;;;24.07;21.57;;;24.30;88.70;;;27.53;54.17;100706.94;5032628;28;20219;-68
2023/08/25 07:50:03;;;;;;;18.23;16.50;;;24.40;88.70;;;27.56;53.95;100711.78;5031266;28;20564;-67
2023/08/25 07:52:30;;;;;;;21.97;19.53;;;24.40;88.70;;;27.60;54.17;100707.41;5026610;28;20195;-67
2023/08/25 07:54:58;;;;;;;20.53;17.50;;;24.40;88.70;;;27.67;54.30;100710.56;5031863;28;20701;-68
2023/08/25 07:57:27;;;;;;;17.43;15.80;;;24.40;88.50;;;27.72;54.02;100705.09;5033155;28;20190;-67
2023/08/25 07:59:55;;;;;;;20.37;18.37;;;24.50;88.30;;;27.75;53.89;100704.53;5031941;28;20219;-67
2023/08/25 08:02:22;;;;;;;19.73;17.80;;;24.60;88.10;;;27.77;53.65;100696.13;5032410;28;20198;-67
2023/08/25 08:04:49;;;;;;;16.80;15.20;;;24.60;87.90;;;27.78;53.54;100687.72;5031948;28;20225;-67
2023/08/25 08:07:16;;;;;;;17.17;15.40;;;24.60;87.80;;;27.82;53.27;100683.34;5031463;28;20198;-66
2023/08/25 08:09:43;;;;;;;18.77;16.77;;;24.70;87.70;;;27.93;53.44;100687.50;5032941;28;20277;-68
2023/08/25 08:12:12;;;;;;;21.07;18.97;;;24.70;87.90;;;28.08;53.02;100686.53;5032453;28;20194;-66
2023/08/25 08:14:39;;;;;;;15.63;14.10;;;24.80;87.60;;;28.18;52.81;100689.94;5030070;28;20728;-68
2023/08/25 08:17:13;;;;;;;16.03;14.43;;;24.80;87.50;;;28.30;52.74;100688.69;5030577;28;20578;-67
2023/08/25 08:19:40;;;;;;;18.50;16.63;;;24.90;87.30;;;28.42;52.34;100694.47;5032875;28;20264;-67
2023/08/25 08:22:08;;;;;;;16.33;14.23;;;25.00;87.00;;;28.47;52.39;100687.06;5032418;28;20191;-67
2023/08/25 08:24:36;;;;;;;18.10;16.23;;;25.10;86.80;;;28.54;51.76;100692.09;5043879;28;20198;-67
2023/08/25 08:27:18;;;;;;;17.70;15.93;;;25.20;86.40;;;28.56;51.67;100692.63;5033701;28;20667;-68
2023/08/25 08:29:46;;;;;;;14.40;13.00;;;25.20;85.50;;;28.52;51.71;100692.41;5032289;28;20628;-66
2023/08/25 08:32:14;;;;;;;15.97;14.47;;;25.30;85.50;;;28.50;51.65;100699.22;5032948;28;20252;-67
2023/08/25 08:34:43;;;;;;;14.53;13.13;;;25.30;85.10;;;28.47;51.77;100713.34;5048464;28;20280;-66
2023/08/25 08:37:13;;;;;;;17.23;15.60;;;25.30;85.00;;;28.44;51.53;100705.81;5035381;28;20211;-67
2023/08/25 08:39:40;;;;;;;18.27;16.20;;;25.30;84.80;;;28.35;51.51;100707.56;5031188;28;20206;-67
2023/08/25 08:42:09;;;;;;;18.57;16.57;;;25.30;84.60;;;28.27;51.51;100710.91;5032819;28;20213;-68
2023/08/25 08:44:40;;;;;;;14.80;13.30;;;25.20;84.50;;;28.23;51.66;100715.31;5031508;28;20187;-68
2023/08/25 08:47:09;;;;;;;16.00;14.30;;;25.20;84.70;;;28.18;52.00;100708.06;5025334;28;20624;-68
2023/08/25 08:49:36;;;;;;;13.07;11.77;;;25.20;84.70;;;28.16;51.67;100716.50;5032707;28;20553;-67
2023/08/25 08:52:06;;;;;;;17.87;15.53;;;25.20;84.90;;;28.13;51.99;100722.50;5032348;28;20269;-67
2023/08/25 08:54:36;;;;;;;17.17;15.47;;;25.10;84.70;;;28.09;51.99;100726.88;5032044;28;20183;-67
2023/08/25 08:57:04;;;;;;;13.77;12.47;;;25.10;84.60;;;28.09;51.80;100726.06;5033639;28;20209;-68
2023/08/25 08:59:40;;;;;;;16.87;15.17;;;25.10;84.70;;;28.08;52.00;100736.09;5036232;28;20210;-68
2023/08/25 09:02:14;;;;;;;16.83;15.20;;;25.10;84.80;;;28.10;51.96;100741.19;5020111;28;20206;-70
2023/08/25 09:04:43;;;;;;;17.37;15.57;;;25.00;84.80;;;28.12;51.79;100726.28;5034980;28;20659;-67
2023/08/25 09:07:12;;;;;;;15.57;14.17;;;25.00;85.00;;;28.13;51.93;100732.50;5035884;28;20209;-68
2023/08/25 09:09:40;;;;;;;16.87;15.17;;;25.00;85.90;;;28.11;51.82;100730.09;5036057;28;20706;-69
2023/08/25 09:12:07;;;;;;;14.50;13.13;;;25.00;85.10;;;28.13;51.99;100721.66;5036107;28;20195;-67
2023/08/25 09:14:35;;;;;;;15.57;13.30;;;25.00;85.10;;;28.15;51.68;100724.88;5035478;28;20646;-67
2023/08/25 09:17:06;;;;;;;13.83;12.60;;;25.00;85.10;;;28.17;51.75;100718.09;5035248;28;20220;-68
2023/08/25 09:19:33;;;;;;;12.53;11.33;;;25.10;85.20;;;28.23;52.23;100716.13;5034741;28;20206;-69
2023/08/25 09:22:03;;;;;;;14.00;12.50;;;25.10;85.30;;;28.33;51.63;100726.00;5036242;28;20191;-67
2023/08/25 09:24:30;;;;;;;13.77;12.47;;;25.10;85.20;;;28.43;51.46;100734.00;5044324;28;20662;-66
2023/08/25 09:26:57;;;;;;;14.73;13.33;;;25.20;85.20;;;28.49;51.43;100741.75;5038349;28;20230;-67
2023/08/25 09:29:26;;;;;;;17.77;16.10;;;25.20;84.90;;;28.51;51.10;100750.41;5034819;28;20182;-69
2023/08/25 09:31:53;;;;;;;20.80;17.27;;;25.30;84.50;;;28.44;51.21;100743.72;5034501;28;20198;-67
2023/08/25 09:34:22;;;;;;;18.63;16.90;;;25.30;84.30;;;28.32;51.46;100740.63;5035065;28;20202;-67
2023/08/25 09:36:53;;;;;;;19.83;16.80;;;25.30;84.20;;;28.22;52.03;100751.63;5033455;28;20305;-67
2023/08/25 09:39:20;;;;;;;19.07;17.27;;;25.30;84.30;;;28.12;51.98;100763.41;5034779;28;20234;-68
2023/08/25 09:41:48;;;;;;;17.83;16.23;;;25.30;84.60;;;28.02;52.33;100758.91;5035817;28;20195;-68
2023/08/25 09:44:16;;;;;;;17.37;15.70;;;25.20;84.60;;;27.96;52.52;100754.59;5033002;28;20658;-67
2023/08/25 09:46:45;;;;;;;30.57;27.70;;;25.20;84.80;;;27.96;53.04;100764.63;5018230;28;20218;-67
2023/08/25 09:49:14;;;;;;;18.93;16.97;;;25.20;85.10;;;28.00;52.51;100761.09;5034602;28;20252;-68
2023/08/25 09:51:44;;;;;;;19.87;18.00;;;25.20;85.20;;;28.04;52.67;100762.13;5034399;28;20201;-67
2023/08/25 09:54:14;;;;;;;19.73;15.80;;;25.10;85.20;;;28.04;52.52;100767.56;5034715;28;20290;-67
2023/08/25 09:56:43;;;;;;;17.10;14.57;;;25.20;85.20;;;28.06;52.57;100761.84;5034362;28;20592;-68
2023/08/25 09:59:13;;;;;;;18.50;16.67;;;25.20;85.40;;;28.10;52.47;100766.38;5033194;28;20273;-67
2023/08/25 10:01:43;;;;;;;19.27;17.40;;;25.20;85.20;;;28.04;52.14;100764.03;5033485;28;20206;-68
2023/08/25 10:04:11;;;;;;;18.73;16.77;;;25.20;84.60;;;27.95;52.21;100753.03;5034649;28;20199;-67
2023/08/25 10:06:40;;;;;;;15.07;13.57;;;25.20;84.70;;;27.91;52.47;100756.56;5033138;28;20217;-68